createdAt,value
2022-08-25T00:00:20.735Z,101570.00
2022-08-25T00:02:54.914Z,101568.81
2022-08-25T00:05:17.846Z,101566.81
2022-08-25T00:07:40.113Z,101561.56
2022-08-25T00:10:02.016Z,101574.84
2022-08-25T00:12:24.019Z,101575.63
2022-08-25T00:14:45.975Z,101565.22
2022-08-25T00:17:07.781Z,101556.38
2022-08-25T00:19:35.349Z,101562.78
2022-08-25T00:21:57.217Z,101563.59
2022-08-25T00:24:21.325Z,101562.41
2022-08-25T00:26:48.499Z,101564.81
2022-08-25T00:29:11.783Z,101566.03
2022-08-25T00:31:37.788Z,101564.41
2022-08-25T00:34:01.423Z,101562.03
2022-08-25T00:36:23.339Z,101566.84
2022-08-25T00:38:48.243Z,101564.03
2022-08-25T00:41:18.153Z,101564.44
2022-08-25T00:43:48.431Z,101562.84
2022-08-25T00:46:13.049Z,101569.25
2022-08-25T00:48:35.662Z,101571.28
2022-08-25T00:50:57.650Z,101568.47
2022-08-25T00:53:19.815Z,101576.47
2022-08-25T00:55:42.347Z,101567.66
2022-08-25T00:58:14.206Z,101572.84
2022-08-25T01:00:49.538Z,101572.06
2022-08-25T01:03:11.841Z,101567.66
2022-08-25T01:05:34.274Z,101572.47
2022-08-25T01:07:58.736Z,101564.03
2022-08-25T01:10:22.956Z,101564.84
2022-08-25T01:12:45.323Z,101560.81
2022-08-25T01:15:12.479Z,101569.25
2022-08-25T01:17:57.273Z,101564.44
2022-08-25T01:20:29.440Z,101564.03
2022-08-25T01:22:55.412Z,101561.22
2022-08-25T01:25:47.977Z,101562.44
2022-08-25T01:28:10.066Z,101560.81
2022-08-25T01:30:33.029Z,101560.41
2022-08-25T01:32:54.990Z,101556.81
2022-08-25T01:35:18.802Z,101564.44
2022-08-25T01:37:41.341Z,101569.66
2022-08-25T01:40:06.124Z,101565.25
2022-08-25T01:42:48.290Z,101570.09
2022-08-25T01:45:10.478Z,101556.03
2022-08-25T01:47:33.052Z,101564.47
2022-08-25T01:49:54.978Z,101567.69
2022-08-25T01:52:37.756Z,101563.25
2022-08-25T01:54:59.718Z,101564.06
2022-08-25T01:57:22.552Z,101565.69
2022-08-25T01:59:45.079Z,101561.66
2022-08-25T02:02:07.273Z,101568.50
2022-08-25T02:04:32.414Z,101570.09
2022-08-25T02:06:54.347Z,101570.94
2022-08-25T02:09:17.843Z,101565.31
2022-08-25T02:11:44.890Z,101574.09
2022-08-25T02:14:07.148Z,101572.91
2022-08-25T02:16:36.614Z,101576.88
2022-08-25T02:18:59.363Z,101580.09
2022-08-25T02:21:22.249Z,101580.47
2022-08-25T02:23:44.987Z,101578.44
2022-08-25T02:26:06.889Z,101578.03
2022-08-25T02:28:29.531Z,101584.47
2022-08-25T02:30:53.013Z,101580.44
2022-08-25T02:33:20.821Z,101580.03
2022-08-25T02:35:42.634Z,101580.41
2022-08-25T02:38:05.536Z,101575.22
2022-08-25T02:40:27.708Z,101572.38
2022-08-25T02:42:51.472Z,101576.41
2022-08-25T02:45:13.978Z,101576.78
2022-08-25T02:47:37.230Z,101569.97
2022-08-25T02:49:59.455Z,101574.78
2022-08-25T02:52:21.532Z,101570.78
2022-08-25T02:54:43.594Z,101573.16
2022-08-25T02:57:05.536Z,101567.13
2022-08-25T02:59:27.795Z,101562.28
2022-08-25T03:01:49.713Z,101561.88
2022-08-25T03:04:12.516Z,101567.09
2022-08-25T03:06:34.456Z,101563.88
2022-08-25T03:08:56.694Z,101553.84
2022-08-25T03:11:19.081Z,101555.84
2022-08-25T03:13:41.826Z,101547.81
2022-08-25T03:16:06.088Z,101549.84
2022-08-25T03:18:33.691Z,101551.44
2022-08-25T03:20:55.522Z,101551.00
2022-08-25T03:23:17.743Z,101548.22
2022-08-25T03:26:00.748Z,101549.81
2022-08-25T03:28:24.941Z,101547.78
2022-08-25T03:30:56.088Z,101546.19
2022-08-25T03:33:18.226Z,101545.78
2022-08-25T03:35:40.735Z,101542.56
2022-08-25T03:38:03.665Z,101538.94
2022-08-25T03:40:26.642Z,101537.31
2022-08-25T03:42:48.970Z,101538.50
2022-08-25T03:45:13.617Z,101527.25
2022-08-25T03:47:35.459Z,101525.25
2022-08-25T03:49:57.957Z,101518.44
2022-08-25T03:52:19.976Z,101524.41
2022-08-25T03:54:41.825Z,101522.03
2022-08-25T03:57:04.299Z,101514.38
2022-08-25T03:59:27.239Z,101517.97
2022-08-25T04:01:54.508Z,101513.59
2022-08-25T04:04:17.226Z,101519.94
2022-08-25T04:06:40.860Z,101509.94
2022-08-25T04:09:02.773Z,101517.16
2022-08-25T04:11:28.866Z,101517.94
2022-08-25T04:13:52.692Z,101519.16
2022-08-25T04:16:19.741Z,101504.72
2022-08-25T04:18:43.456Z,101512.34
2022-08-25T04:21:09.151Z,101514.72
2022-08-25T04:23:31.327Z,101503.91
2022-08-25T04:25:53.139Z,101507.09
2022-08-25T04:28:14.986Z,101511.13
2022-08-25T04:30:43.806Z,101519.53
2022-08-25T04:33:05.672Z,101508.69
2022-08-25T04:35:27.494Z,101514.69
2022-08-25T04:37:49.425Z,101518.69
2022-08-25T04:40:12.196Z,101507.06
2022-08-25T04:42:34.349Z,101520.66
2022-08-25T04:44:56.229Z,101516.66
2022-08-25T04:47:18.153Z,101516.19
2022-08-25T04:49:40.240Z,101515.78
2022-08-25T04:52:02.110Z,101514.19
2022-08-25T04:54:26.405Z,101518.19
2022-08-25T04:56:50.719Z,101514.56
2022-08-25T04:59:18.791Z,101520.16
2022-08-25T05:01:43.178Z,101517.38
2022-08-25T05:04:08.450Z,101512.97
2022-08-25T05:06:37.348Z,101512.25
2022-08-25T05:09:01.644Z,101513.88
2022-08-25T05:11:25.957Z,101503.47
2022-08-25T05:13:51.224Z,101507.09
2022-08-25T05:16:15.075Z,101502.31
2022-08-25T05:18:37.620Z,101504.34
2022-08-25T05:21:11.227Z,101515.19
2022-08-25T05:23:33.498Z,101504.75
2022-08-25T05:25:55.340Z,101510.41
2022-08-25T05:28:18.535Z,101504.00
2022-08-25T05:30:42.961Z,101515.22
2022-08-25T05:33:05.091Z,101514.44
2022-08-25T05:35:26.917Z,101512.44
2022-08-25T05:37:48.856Z,101518.50
2022-08-25T05:40:11.220Z,101530.13
2022-08-25T05:42:33.462Z,101524.13
2022-08-25T05:44:55.616Z,101524.97
2022-08-25T05:47:17.553Z,101532.19
2022-08-25T05:49:39.616Z,101535.78
2022-08-25T05:52:01.720Z,101539.84
2022-08-25T05:54:24.341Z,101543.50
2022-08-25T05:56:46.235Z,101533.06
2022-08-25T05:59:09.540Z,101535.06
2022-08-25T06:01:50.310Z,101536.31
2022-08-25T06:04:14.159Z,101548.72
2022-08-25T06:06:36.204Z,101543.56
2022-08-25T06:08:58.071Z,101534.72
2022-08-25T06:11:20.008Z,101540.75
2022-08-25T06:13:42.339Z,101533.13
2022-08-25T06:16:04.786Z,101534.75
2022-08-25T06:18:27.506Z,101535.16
2022-08-25T06:20:49.478Z,101538.75
2022-08-25T06:23:11.277Z,101538.38
2022-08-25T06:25:34.056Z,101538.81
2022-08-25T06:27:56.101Z,101526.75
2022-08-25T06:30:24.548Z,101530.75
2022-08-25T06:32:50.899Z,101527.50
2022-08-25T06:35:18.880Z,101535.53
2022-08-25T06:37:42.472Z,101537.91
2022-08-25T06:40:07.569Z,101541.50
2022-08-25T06:42:30.032Z,101537.84
2022-08-25T06:44:52.424Z,101535.00
2022-08-25T06:47:15.798Z,101531.72
2022-08-25T06:49:37.733Z,101536.88
2022-08-25T06:52:00.117Z,101534.75
2022-08-25T06:54:21.913Z,101536.31
2022-08-25T06:56:43.945Z,101531.78
2022-08-25T06:59:08.271Z,101524.44
2022-08-25T07:01:32.420Z,101526.72
2022-08-25T07:04:00.133Z,101523.78
2022-08-25T07:06:22.149Z,101532.13
2022-08-25T07:08:44.836Z,101518.69
2022-08-25T07:11:15.991Z,101513.38
2022-08-25T07:13:39.167Z,101517.69
2022-08-25T07:16:01.315Z,101515.56
2022-08-25T07:18:24.640Z,101513.06
2022-08-25T07:20:46.729Z,101512.09
2022-08-25T07:23:08.624Z,101516.47
2022-08-25T07:25:30.948Z,101515.09
2022-08-25T07:27:58.214Z,101515.34
2022-08-25T07:30:20.914Z,101511.09
2022-08-25T07:32:43.126Z,101518.59
2022-08-25T07:35:19.008Z,101515.19
2022-08-25T07:37:49.518Z,101514.63
2022-08-25T07:40:23.423Z,101509.59
2022-08-25T07:42:45.901Z,101512.22
2022-08-25T07:45:09.802Z,101519.34
2022-08-25T07:47:31.798Z,101510.69
2022-08-25T07:49:53.725Z,101512.88
2022-08-25T07:52:16.876Z,101504.16
2022-08-25T07:54:39.291Z,101504.25
2022-08-25T07:57:01.218Z,101513.25
2022-08-25T07:59:24.056Z,101503.22
2022-08-25T08:01:47.039Z,101505.00
2022-08-25T08:04:09.462Z,101510.78
2022-08-25T08:06:32.050Z,101510.53
2022-08-25T08:08:58.917Z,101511.97
2022-08-25T08:11:33.117Z,101501.28
2022-08-25T08:13:57.783Z,101494.13
2022-08-25T08:16:22.173Z,101487.41
2022-08-25T08:18:46.017Z,101482.72
2022-08-25T08:21:32.249Z,101486.94
2022-08-25T08:23:58.931Z,101490.41
2022-08-25T08:26:22.502Z,101486.16
2022-08-25T08:28:58.856Z,101485.50
2022-08-25T08:31:23.764Z,101480.78
2022-08-25T08:33:51.164Z,101482.91
2022-08-25T08:36:13.871Z,101479.88
2022-08-25T08:38:40.508Z,101482.44
2022-08-25T08:42:07.255Z,101470.97
2022-08-25T08:44:30.957Z,101478.56
2022-08-25T08:47:02.937Z,101470.75
2022-08-25T08:50:02.119Z,101468.06
2022-08-25T08:52:43.338Z,101462.63
2022-08-25T08:55:17.424Z,101457.16
2022-08-25T09:00:15.225Z,101462.56
2022-08-25T09:02:52.337Z,101457.81
2022-08-25T09:05:19.290Z,101463.63
2022-08-25T09:07:56.154Z,101462.00
2022-08-25T09:10:20.252Z,101456.44
2022-08-25T09:13:01.007Z,101462.63
2022-08-25T09:16:23.204Z,101460.09
2022-08-25T09:19:33.436Z,101453.00
2022-08-25T09:22:33.312Z,101465.47
2022-08-25T09:25:18.749Z,101468.22
2022-08-25T09:28:05.676Z,101462.38
2022-08-25T09:30:37.114Z,101466.94
2022-08-25T09:33:05.150Z,101461.47
2022-08-25T09:35:34.502Z,101468.03
2022-08-25T09:38:03.673Z,101467.53
2022-08-25T09:40:28.756Z,101468.06
2022-08-25T09:42:58.107Z,101463.25
2022-08-25T09:45:45.960Z,101458.25
2022-08-25T09:48:28.571Z,101454.53
2022-08-25T09:51:08.748Z,101455.72
2022-08-25T09:53:33.909Z,101452.13
2022-08-25T09:56:07.598Z,101451.84
2022-08-25T09:58:30.406Z,101441.88
2022-08-25T10:01:13.589Z,101443.34
2022-08-25T10:03:36.876Z,101440.53
2022-08-25T10:06:12.931Z,101440.09
2022-08-25T10:09:07.557Z,101442.34
2022-08-25T10:11:43.504Z,101433.47
2022-08-25T10:14:38.838Z,101427.69
2022-08-25T10:17:30.586Z,101418.53
2022-08-25T10:20:23.035Z,101423.88
2022-08-25T10:22:48.341Z,101417.84
2022-08-25T10:25:26.906Z,101408.66
2022-08-25T10:28:21.508Z,101409.00
2022-08-25T10:31:15.621Z,101408.38
2022-08-25T10:33:59.980Z,101398.69
2022-08-25T10:36:39.016Z,101390.25
2022-08-25T10:39:02.854Z,101395.00
2022-08-25T10:41:57.380Z,101387.06
2022-08-25T10:45:01.507Z,101386.88
2022-08-25T10:47:58.011Z,101373.34
2022-08-25T10:50:40.936Z,101368.75
2022-08-25T10:53:48.092Z,101365.75
2022-08-25T10:56:37.016Z,101365.69
2022-08-25T10:59:21.491Z,101359.91
2022-08-25T11:02:30.992Z,101356.72
2022-08-25T11:05:10.169Z,101359.53
2022-08-25T11:07:48.259Z,101359.16
2022-08-25T11:11:00.786Z,101350.56
2022-08-25T11:13:46.114Z,101358.16
2022-08-25T11:16:19.908Z,101352.25
2022-08-25T11:19:10.198Z,101347.94
2022-08-25T11:21:52.857Z,101339.16
2022-08-25T11:24:47.120Z,101339.38
2022-08-25T11:27:21.657Z,101334.69
2022-08-25T11:29:59.932Z,101334.94
2022-08-25T11:32:24.778Z,101330.78
2022-08-25T11:34:46.782Z,101328.06
2022-08-25T11:37:23.893Z,101332.41
2022-08-25T11:40:08.822Z,101321.84
2022-08-25T11:43:08.233Z,101321.34
2022-08-25T11:46:03.633Z,101316.22
2022-08-25T11:48:53.898Z,101314.84
2022-08-25T11:51:31.481Z,101305.88
2022-08-25T11:54:27.451Z,101297.06
2022-08-25T11:57:04.339Z,101306.44
2022-08-25T11:59:57.226Z,101293.09
2022-08-25T12:02:50.492Z,101294.69
2022-08-25T12:05:22.320Z,101291.69
2022-08-25T12:07:47.408Z,101296.44
2022-08-25T12:10:13.056Z,101292.25
2022-08-25T12:12:57.416Z,101283.97
2022-08-25T12:15:30.187Z,101287.13
2022-08-25T12:18:40.174Z,101293.66
2022-08-25T12:21:07.986Z,101293.84
2022-08-25T12:23:34.672Z,101298.69
2022-08-25T12:26:05.043Z,101286.09
2022-08-25T12:29:13.498Z,101295.91
2022-08-25T12:32:07.049Z,101289.06
2022-08-25T12:34:50.960Z,101294.09
2022-08-25T12:37:18.030Z,101283.56
2022-08-25T12:39:49.350Z,101286.13
2022-08-25T12:42:45.753Z,101296.28
2022-08-25T12:45:23.934Z,101286.78
2022-08-25T12:47:48.941Z,101282.66
2022-08-25T12:50:47.710Z,101279.44
2022-08-25T12:54:19.140Z,101279.75
2022-08-25T12:56:52.943Z,101282.59
2022-08-25T12:59:32.657Z,101287.50
2022-08-25T13:02:39.826Z,101279.97
2022-08-25T13:05:56.642Z,101276.03
2022-08-25T13:08:47.148Z,101265.47
2022-08-25T13:11:20.405Z,101274.16
2022-08-25T13:14:12.355Z,101268.72
2022-08-25T13:16:35.052Z,101256.97
2022-08-25T13:19:02.096Z,101255.00
2022-08-25T13:21:33.552Z,101252.69
2022-08-25T13:24:05.126Z,101256.81
2022-08-25T13:26:48.192Z,101242.22
2022-08-25T13:29:22.063Z,101250.72
2022-08-25T13:31:57.634Z,101248.16
2022-08-25T13:34:34.241Z,101235.50
2022-08-25T13:37:15.651Z,101234.56
2022-08-25T13:39:55.965Z,101240.09
2022-08-25T13:42:20.855Z,101236.16
2022-08-25T13:44:52.462Z,101230.84
2022-08-25T13:47:43.561Z,101228.41
2022-08-25T13:50:21.264Z,101228.66
2022-08-25T13:52:55.084Z,101227.88
2022-08-25T13:55:27.784Z,101223.88
2022-08-25T13:57:51.467Z,101217.84
2022-08-25T14:00:31.902Z,101219.00
2022-08-25T14:02:55.661Z,101216.41
2022-08-25T14:05:38.313Z,101213.44
2022-08-25T14:08:16.042Z,101212.22
2022-08-25T14:10:45.228Z,101213.06
2022-08-25T14:13:30.979Z,101209.81
2022-08-25T14:15:53.147Z,101205.16
2022-08-25T14:18:33.371Z,101205.44
2022-08-25T14:20:57.786Z,101201.75
2022-08-25T14:23:27.024Z,101199.41
2022-08-25T14:25:55.485Z,101197.81
2022-08-25T14:28:24.315Z,101200.97
2022-08-25T14:30:54.347Z,101198.19
2022-08-25T14:33:23.613Z,101197.47
2022-08-25T14:35:51.549Z,101194.69
2022-08-25T14:38:17.733Z,101190.34
2022-08-25T14:40:39.913Z,101193.97
2022-08-25T14:43:02.083Z,101191.91
2022-08-25T14:45:24.179Z,101188.38
2022-08-25T14:47:49.672Z,101184.63
2022-08-25T14:50:14.778Z,101186.91
2022-08-25T14:52:44.219Z,101183.28
2022-08-25T14:55:06.980Z,101189.06
2022-08-25T14:57:29.179Z,101183.22
2022-08-25T14:59:52.325Z,101179.44
2022-08-25T15:02:21.105Z,101183.94
2022-08-25T15:04:49.342Z,101175.91
2022-08-25T15:07:32.380Z,101168.09
2022-08-25T15:09:54.178Z,101167.53
2022-08-25T15:12:26.130Z,101184.47
2022-08-25T15:14:58.835Z,101170.31
2022-08-25T15:17:21.197Z,101170.56
2022-08-25T15:19:43.349Z,101164.03
2022-08-25T15:22:07.785Z,101164.31
2022-08-25T15:24:34.990Z,101160.16
2022-08-25T15:27:04.047Z,101159.56
2022-08-25T15:29:30.117Z,101163.22
2022-08-25T15:31:52.120Z,101162.75
2022-08-25T15:34:14.539Z,101157.78
2022-08-25T15:36:36.910Z,101158.56
2022-08-25T15:39:00.308Z,101154.44
2022-08-25T15:41:27.108Z,101159.38
2022-08-25T15:43:51.644Z,101154.13
2022-08-25T15:46:20.684Z,101157.00
2022-08-25T15:48:42.839Z,101148.13
2022-08-25T15:51:05.389Z,101156.13
2022-08-25T15:53:29.725Z,101157.16
2022-08-25T15:55:54.080Z,101157.84
2022-08-25T15:58:16.825Z,101161.72
2022-08-25T16:00:38.788Z,101152.22
2022-08-25T16:03:00.908Z,101154.56
2022-08-25T16:05:25.953Z,101154.16
2022-08-25T16:07:51.837Z,101148.06
2022-08-25T16:10:13.971Z,101150.66
2022-08-25T16:12:35.944Z,101145.91
2022-08-25T16:14:57.930Z,101148.91
2022-08-25T16:17:20.717Z,101147.66
2022-08-25T16:19:42.713Z,101142.03
2022-08-25T16:22:04.785Z,101135.44
2022-08-25T16:24:30.841Z,101134.34
2022-08-25T16:26:53.469Z,101135.16
2022-08-25T16:29:19.841Z,101134.16
2022-08-25T16:31:41.883Z,101138.09
2022-08-25T16:34:04.099Z,101132.84
2022-08-25T16:36:28.474Z,101130.22
2022-08-25T16:38:52.234Z,101125.38
2022-08-25T16:41:23.502Z,101141.88
2022-08-25T16:43:46.276Z,101140.69
2022-08-25T16:46:13.953Z,101139.78
2022-08-25T16:48:38.015Z,101141.88
2022-08-25T16:51:00.471Z,101141.38
2022-08-25T16:53:40.777Z,101138.53
2022-08-25T16:56:06.632Z,101134.56
2022-08-25T16:58:33.213Z,101126.69
2022-08-25T17:00:55.331Z,101129.44
2022-08-25T17:03:18.865Z,101134.28
2022-08-25T17:05:42.958Z,101131.50
2022-08-25T17:08:23.510Z,101133.38
2022-08-25T17:10:47.619Z,101140.34
2022-08-25T17:13:10.987Z,101137.44
2022-08-25T17:15:33.227Z,101137.41
2022-08-25T17:17:55.114Z,101140.00
2022-08-25T17:20:17.062Z,101140.84
2022-08-25T17:22:38.945Z,101132.34
2022-08-25T17:25:01.635Z,101136.72
2022-08-25T17:27:24.138Z,101142.84
2022-08-25T17:29:48.025Z,101142.63
2022-08-25T17:32:10.175Z,101142.53
2022-08-25T17:34:35.645Z,101144.28
2022-08-25T17:36:59.464Z,101144.16
2022-08-25T17:39:23.530Z,101141.63
2022-08-25T17:41:45.999Z,101144.00
2022-08-25T17:44:07.999Z,101148.75
2022-08-25T17:46:30.292Z,101154.00
2022-08-25T17:48:54.684Z,101145.44
2022-08-25T17:51:16.881Z,101154.00
2022-08-25T17:53:39.456Z,101158.56
2022-08-25T17:56:28.609Z,101149.38
2022-08-25T17:58:55.120Z,101143.81
2022-08-25T18:01:22.356Z,101143.47
2022-08-25T18:03:45.654Z,101139.94
2022-08-25T18:06:08.072Z,101132.66
2022-08-25T18:08:34.907Z,101128.53
2022-08-25T18:10:58.015Z,101123.75
2022-08-25T18:13:20.115Z,101123.38
2022-08-25T18:15:43.835Z,101126.94
2022-08-25T18:18:06.513Z,101135.44
2022-08-25T18:20:28.703Z,101130.50
2022-08-25T18:22:51.435Z,101133.78
2022-08-25T18:25:16.077Z,101129.25
2022-08-25T18:27:39.311Z,101135.38
2022-08-25T18:30:03.339Z,101147.13
2022-08-25T18:32:26.004Z,101145.44
2022-08-25T18:34:48.150Z,101153.56
2022-08-25T18:37:28.523Z,101150.75
2022-08-25T18:40:09.553Z,101150.44
2022-08-25T18:42:31.516Z,101145.94
2022-08-25T18:44:53.463Z,101152.63
2022-08-25T18:47:15.335Z,101154.94
2022-08-25T18:49:37.661Z,101147.47
2022-08-25T18:51:59.725Z,101149.72
2022-08-25T18:54:23.134Z,101150.31
2022-08-25T18:56:45.747Z,101161.09
2022-08-25T18:59:08.565Z,101158.94
2022-08-25T19:01:31.212Z,101163.22
2022-08-25T19:03:53.217Z,101163.56
2022-08-25T19:06:16.153Z,101167.06
2022-08-25T19:08:41.665Z,101160.97
2022-08-25T19:11:04.851Z,101176.69
2022-08-25T19:13:28.340Z,101168.56
2022-08-25T19:15:52.558Z,101173.31
2022-08-25T19:18:15.555Z,101172.25
2022-08-25T19:20:41.251Z,101176.91
2022-08-25T19:23:03.503Z,101179.50
2022-08-25T19:25:33.061Z,101167.22
2022-08-25T19:27:56.558Z,101175.91
2022-08-25T19:30:24.909Z,101176.09
2022-08-25T19:32:47.885Z,101197.66
2022-08-25T19:35:38.367Z,101189.47
2022-08-25T19:38:03.846Z,101196.19
2022-08-25T19:40:30.352Z,101204.41
2022-08-25T19:42:53.895Z,101204.16
2022-08-25T19:45:16.519Z,101205.09
2022-08-25T19:47:38.862Z,101210.09
2022-08-25T19:50:00.805Z,101217.84
2022-08-25T19:52:24.976Z,101216.34
2022-08-25T19:54:48.695Z,101210.31
2022-08-25T19:57:13.163Z,101218.91
2022-08-25T19:59:50.039Z,101221.09
2022-08-25T20:02:18.939Z,101219.19
2022-08-25T20:04:41.433Z,101226.59
2022-08-25T20:07:04.022Z,101229.94
2022-08-25T20:09:39.302Z,101230.09
2022-08-25T20:12:06.297Z,101233.91
2022-08-25T20:14:28.374Z,101227.16
2022-08-25T20:16:51.550Z,101241.81
2022-08-25T20:19:15.869Z,101237.88
2022-08-25T20:21:40.758Z,101243.25
2022-08-25T20:24:21.582Z,101245.00
2022-08-25T20:26:43.496Z,101251.19
2022-08-25T20:29:05.913Z,101253.38
2022-08-25T20:31:27.754Z,101257.91
2022-08-25T20:33:50.049Z,101245.53
2022-08-25T20:36:17.294Z,101252.53
2022-08-25T20:38:44.537Z,101256.72
2022-08-25T20:41:10.152Z,101266.56
2022-08-25T20:43:34.588Z,101257.88
2022-08-25T20:46:03.513Z,101264.84
2022-08-25T20:48:26.869Z,101268.25
2022-08-25T20:50:57.269Z,101270.34
2022-08-25T20:53:19.977Z,101277.75
2022-08-25T20:55:47.536Z,101286.81
2022-08-25T20:58:09.379Z,101282.94
2022-08-25T21:00:31.217Z,101289.53
2022-08-25T21:02:53.419Z,101291.25
2022-08-25T21:05:15.853Z,101295.28
2022-08-25T21:07:37.973Z,101298.69
2022-08-25T21:10:00.461Z,101300.72
2022-08-25T21:12:23.956Z,101297.22
2022-08-25T21:14:46.610Z,101316.22
2022-08-25T21:17:13.105Z,101316.31
2022-08-25T21:19:35.584Z,101315.53
2022-08-25T21:22:00.290Z,101312.06
2022-08-25T21:24:22.532Z,101313.78
2022-08-25T21:26:52.660Z,101311.41
2022-08-25T21:29:15.135Z,101311.06
2022-08-25T21:31:37.386Z,101314.69
2022-08-25T21:34:02.451Z,101308.34
2022-08-25T21:36:29.523Z,101307.59
2022-08-25T21:38:52.811Z,101311.59
2022-08-25T21:41:25.591Z,101309.22
2022-08-25T21:43:49.679Z,101318.97
2022-08-25T21:46:15.059Z,101323.44
2022-08-25T21:48:37.181Z,101325.47
2022-08-25T21:51:12.138Z,101325.50
2022-08-25T21:53:34.336Z,101318.69
2022-08-25T21:55:56.243Z,101326.34
2022-08-25T21:58:18.488Z,101325.59
2022-08-25T22:00:40.345Z,101318.78
2022-08-25T22:03:02.347Z,101328.88
2022-08-25T22:05:24.273Z,101327.69
2022-08-25T22:07:46.112Z,101326.09
2022-08-25T22:10:16.424Z,101328.91
2022-08-25T22:12:39.675Z,101328.13
2022-08-25T22:15:01.802Z,101326.56
2022-08-25T22:17:24.180Z,101328.59
2022-08-25T22:19:46.693Z,101337.91
2022-08-25T22:22:08.832Z,101335.47
2022-08-25T22:24:30.724Z,101336.28
2022-08-25T22:26:52.566Z,101345.16
2022-08-25T22:29:25.185Z,101338.72
2022-08-25T22:31:51.073Z,101340.75
2022-08-25T22:34:14.962Z,101335.56
2022-08-25T22:36:39.276Z,101335.56
2022-08-25T22:39:03.571Z,101343.59
2022-08-25T22:41:29.363Z,101345.19
2022-08-25T22:43:53.066Z,101348.84
2022-08-25T22:46:17.181Z,101342.81
2022-08-25T22:48:39.480Z,101337.19
2022-08-25T22:51:13.971Z,101338.41
2022-08-25T22:53:38.451Z,101342.03
2022-08-25T22:56:02.074Z,101340.84
2022-08-25T22:58:24.356Z,101337.25
2022-08-25T23:00:47.027Z,101343.28
2022-08-25T23:03:09.049Z,101356.13
2022-08-25T23:05:30.955Z,101352.53
2022-08-25T23:07:52.767Z,101350.53
2022-08-25T23:10:15.623Z,101347.31
2022-08-25T23:12:39.473Z,101342.53
2022-08-25T23:15:11.227Z,101350.16
2022-08-25T23:17:33.519Z,101359.38
2022-08-25T23:19:56.089Z,101354.16
2022-08-25T23:22:18.215Z,101351.75
2022-08-25T23:24:44.695Z,101361.41
2022-08-25T23:27:08.983Z,101357.78
2022-08-25T23:29:34.319Z,101361.41
2022-08-25T23:31:58.280Z,101360.22
2022-08-25T23:34:20.287Z,101364.63
2022-08-25T23:36:42.289Z,101364.63
2022-08-25T23:39:05.748Z,101363.81
2022-08-25T23:41:29.829Z,101368.22
2022-08-25T23:43:53.395Z,101360.22
2022-08-25T23:46:24.175Z,101372.66
2022-08-25T23:48:49.617Z,101369.84
2022-08-25T23:51:12.688Z,101368.63
2022-08-25T23:53:36.347Z,101369.41
2022-08-25T23:55:59.508Z,101381.03
2022-08-25T23:58:22.735Z,101379.44
